KBZN

Bozeman Yellowstone International Airport

Airport
ICAO code
KBZN
IATA Code
BZN
Summary
ICAO Region
NAM
ICAO Territory
Location

Belgrade, Gallatin County, , Montana

Serving
Bozeman
Elevation
4473 ft
Coordinates
45° 46' 37" N , 111° 9' 38" W
KCC
Airport CFIT
Altimeter Temperature Error Correction
Airport RE
Hot and High Operations
Metar
KBZN 201856Z 02005KT 10SM CLR 20/07 A3017 RMK AO2 SLP197 T02000072

Description

Bozeman Yellowstone International Airport, formerly known as Gallatin Field Airport, is a public-use airport located 8 nm northwest of the central business district of Bozeman, a city in Gallatin County, Montana, United States. 

Airport map

Aerial View

SKYbrary Partners:

Safety knowledge contributed by: